createdAt,value
2022-10-19T00:01:07.257Z,48.91
2022-10-19T00:03:35.351Z,48.47
2022-10-19T00:06:15.114Z,48.75
2022-10-19T00:08:43.518Z,49.19
2022-10-19T00:11:11.792Z,49.26
2022-10-19T00:13:39.626Z,49.51
2022-10-19T00:16:13.618Z,50.40
2022-10-19T00:18:43.412Z,50.18
2022-10-19T00:21:13.932Z,50.14
2022-10-19T00:23:42.177Z,50.28
2022-10-19T00:26:09.928Z,50.29
2022-10-19T00:28:37.746Z,50.75
2022-10-19T00:31:11.911Z,50.85
2022-10-19T00:33:40.199Z,50.34
2022-10-19T00:36:18.404Z,50.30
2022-10-19T00:38:46.459Z,50.22
2022-10-19T00:41:14.698Z,50.34
2022-10-19T00:44:00.321Z,49.49
2022-10-19T00:46:30.480Z,48.96
2022-10-19T00:49:03.276Z,49.25
2022-10-19T00:51:33.864Z,49.02
2022-10-19T00:54:03.159Z,48.55
2022-10-19T00:56:30.633Z,48.94
2022-10-19T00:58:58.326Z,48.32
2022-10-19T01:01:27.486Z,48.31
2022-10-19T01:03:55.000Z,48.01
2022-10-19T01:06:23.543Z,48.16
2022-10-19T01:08:50.966Z,47.81
2022-10-19T01:11:44.534Z,47.83
2022-10-19T01:14:33.290Z,47.98
2022-10-19T01:17:18.514Z,48.57
2022-10-19T01:20:10.471Z,48.21
2022-10-19T01:22:50.114Z,47.93
2022-10-19T01:25:37.829Z,48.22
2022-10-19T01:28:14.454Z,48.07
2022-10-19T01:31:25.796Z,48.41
2022-10-19T01:37:01.063Z,48.73
2022-10-19T01:39:49.126Z,49.08
2022-10-19T01:42:31.508Z,48.91
2022-10-19T01:45:05.095Z,49.00
2022-10-19T01:47:38.585Z,48.84
2022-10-19T01:50:16.512Z,48.38
2022-10-19T01:52:44.542Z,48.16
2022-10-19T01:55:13.687Z,47.80
2022-10-19T01:57:46.182Z,47.72
2022-10-19T02:00:15.198Z,47.82
2022-10-19T02:02:49.833Z,47.82
2022-10-19T02:05:21.070Z,47.37
2022-10-19T02:07:56.180Z,47.99
2022-10-19T02:10:25.136Z,48.45
2022-10-19T02:12:53.801Z,47.96
2022-10-19T02:15:23.549Z,48.50
2022-10-19T02:17:53.357Z,49.08
2022-10-19T02:20:21.339Z,48.98
2022-10-19T02:22:48.824Z,49.17
2022-10-19T02:25:16.669Z,50.01
2022-10-19T02:27:44.227Z,49.96
2022-10-19T02:30:13.452Z,49.24
2022-10-19T02:32:41.900Z,49.60
2022-10-19T02:35:10.358Z,49.32
2022-10-19T02:37:38.100Z,49.00
2022-10-19T02:40:06.416Z,49.83
2022-10-19T02:42:44.101Z,49.28
2022-10-19T02:45:27.996Z,49.03
2022-10-19T02:48:01.065Z,48.69
2022-10-19T02:50:28.824Z,48.76
2022-10-19T02:52:58.749Z,48.74
2022-10-19T02:55:26.252Z,49.04
2022-10-19T02:57:54.737Z,48.94
2022-10-19T03:00:22.141Z,49.47
2022-10-19T03:02:49.575Z,49.76
2022-10-19T03:05:17.359Z,49.48
2022-10-19T03:07:44.865Z,49.59
2022-10-19T03:10:12.303Z,50.06
2022-10-19T03:12:39.978Z,50.17
2022-10-19T03:15:07.949Z,52.42
2022-10-19T03:17:36.005Z,53.57
2022-10-19T03:20:04.392Z,55.33
2022-10-19T03:22:31.850Z,54.16
2022-10-19T03:24:59.244Z,54.05
2022-10-19T03:27:26.895Z,55.44
2022-10-19T03:29:54.302Z,54.74
2022-10-19T03:32:21.701Z,52.78
2022-10-19T03:34:49.438Z,54.23
2022-10-19T03:37:16.876Z,54.58
2022-10-19T03:39:44.328Z,54.53
2022-10-19T03:42:12.066Z,54.00
2022-10-19T03:44:39.492Z,52.56
2022-10-19T03:47:06.866Z,53.25
2022-10-19T03:49:36.814Z,53.36
2022-10-19T03:52:06.933Z,53.32
2022-10-19T03:54:34.633Z,53.09
2022-10-19T03:57:02.028Z,52.54
2022-10-19T03:59:29.510Z,51.43
2022-10-19T04:01:57.143Z,50.12
2022-10-19T04:04:24.878Z,50.06
2022-10-19T04:06:53.913Z,49.91
2022-10-19T04:09:22.737Z,49.56
2022-10-19T04:11:50.574Z,49.76
2022-10-19T04:14:31.621Z,49.90
2022-10-19T04:17:04.217Z,51.34
2022-10-19T04:19:31.807Z,50.55
2022-10-19T04:21:59.271Z,50.09
2022-10-19T04:24:27.187Z,51.08
2022-10-19T04:26:55.869Z,50.75
2022-10-19T04:29:29.409Z,51.31
2022-10-19T04:31:59.172Z,52.40
2022-10-19T04:34:26.618Z,52.79
2022-10-19T04:36:54.171Z,52.50
2022-10-19T04:39:21.851Z,51.86
2022-10-19T04:41:49.254Z,51.51
2022-10-19T04:44:16.680Z,51.13
2022-10-19T04:46:44.355Z,50.68
2022-10-19T04:49:14.146Z,50.70
2022-10-19T04:51:45.432Z,50.39
2022-10-19T04:54:12.863Z,51.74
2022-10-19T04:56:40.485Z,52.63
2022-10-19T04:59:09.179Z,52.81
2022-10-19T05:01:36.821Z,53.49
2022-10-19T05:04:04.340Z,53.58
2022-10-19T05:06:32.099Z,56.05
2022-10-19T05:08:59.893Z,56.36
2022-10-19T05:11:27.605Z,57.69
2022-10-19T05:13:56.842Z,57.18
2022-10-19T05:16:24.577Z,56.16
2022-10-19T05:18:56.197Z,58.16
2022-10-19T05:21:23.942Z,56.71
2022-10-19T05:23:52.675Z,56.90
2022-10-19T05:26:25.027Z,56.37
2022-10-19T05:28:56.616Z,57.45
2022-10-19T05:31:26.375Z,56.32
2022-10-19T05:33:56.134Z,57.17
2022-10-19T05:36:26.304Z,57.59
2022-10-19T05:38:56.818Z,57.92
2022-10-19T05:41:26.126Z,57.35
2022-10-19T05:43:56.259Z,56.87
2022-10-19T05:46:25.195Z,57.54
2022-10-19T05:48:52.643Z,57.42
2022-10-19T05:51:21.947Z,57.84
2022-10-19T05:53:49.666Z,57.10
2022-10-19T05:56:20.201Z,57.53
2022-10-19T05:58:48.759Z,57.26
2022-10-19T06:01:19.001Z,58.41
2022-10-19T06:03:47.889Z,59.26
2022-10-19T06:06:15.368Z,58.78
2022-10-19T06:08:42.840Z,58.04
2022-10-19T06:11:12.770Z,59.14
2022-10-19T06:13:41.694Z,59.87
2022-10-19T06:16:10.053Z,58.69
2022-10-19T06:18:38.334Z,57.88
2022-10-19T06:21:07.772Z,58.18
2022-10-19T06:23:35.608Z,57.41
2022-10-19T06:26:05.664Z,57.64
2022-10-19T06:28:33.767Z,57.67
2022-10-19T06:31:01.438Z,57.35
2022-10-19T06:33:30.096Z,57.04
2022-10-19T06:36:08.636Z,56.78
2022-10-19T06:38:36.569Z,56.61
2022-10-19T06:41:04.211Z,57.93
2022-10-19T06:43:31.722Z,57.32
2022-10-19T06:45:59.403Z,56.65
2022-10-19T06:48:26.821Z,59.37
2022-10-19T06:50:58.141Z,58.96
2022-10-19T06:53:26.124Z,59.30
2022-10-19T06:55:53.516Z,58.79
2022-10-19T06:58:20.910Z,59.22
2022-10-19T07:00:57.705Z,58.83
2022-10-19T07:03:26.005Z,58.57
2022-10-19T07:05:55.325Z,59.34
2022-10-19T07:08:23.581Z,61.54
2022-10-19T07:10:53.173Z,61.08
2022-10-19T07:13:21.645Z,61.25
2022-10-19T07:15:49.660Z,61.53
2022-10-19T07:18:17.124Z,61.08
2022-10-19T07:20:54.296Z,61.14
2022-10-19T07:23:21.672Z,62.25
2022-10-19T07:25:49.480Z,62.37
2022-10-19T07:28:16.858Z,61.84
2022-10-19T07:30:44.310Z,61.16
2022-10-19T07:33:12.116Z,61.47
2022-10-19T07:35:39.560Z,60.07
2022-10-19T07:38:06.989Z,61.31
2022-10-19T07:40:35.197Z,61.00
2022-10-19T07:43:02.895Z,61.89
2022-10-19T07:45:30.413Z,60.36
2022-10-19T07:47:59.073Z,60.42
2022-10-19T07:50:27.747Z,60.92
2022-10-19T07:52:55.437Z,59.79
2022-10-19T07:55:23.098Z,59.18
2022-10-19T07:57:50.532Z,58.77
2022-10-19T08:00:18.070Z,58.76
2022-10-19T08:02:57.737Z,58.26
2022-10-19T08:05:33.925Z,56.93
2022-10-19T08:08:01.603Z,57.77
2022-10-19T08:10:29.129Z,56.74
2022-10-19T08:12:56.583Z,55.55
2022-10-19T08:15:26.148Z,54.59
2022-10-19T08:17:53.550Z,55.14
2022-10-19T08:20:20.966Z,53.97
2022-10-19T08:22:48.697Z,53.37
2022-10-19T08:25:16.083Z,53.13
2022-10-19T08:27:43.531Z,52.61
2022-10-19T08:30:11.457Z,54.08
2022-10-19T08:32:38.943Z,53.94
2022-10-19T08:35:09.990Z,52.76
2022-10-19T08:37:44.812Z,53.93
2022-10-19T08:40:19.382Z,53.71
2022-10-19T08:43:04.981Z,52.31
2022-10-19T08:45:34.926Z,52.79
2022-10-19T08:48:28.117Z,52.08
2022-10-19T08:50:57.212Z,52.11
2022-10-19T08:53:33.576Z,53.24
2022-10-19T08:56:50.623Z,51.72
2022-10-19T08:59:57.492Z,50.83
2022-10-19T09:02:34.670Z,50.61
2022-10-19T09:05:44.476Z,50.92
2022-10-19T09:08:17.449Z,51.73
2022-10-19T09:10:49.435Z,51.14
2022-10-19T09:13:23.260Z,51.07
2022-10-19T09:15:52.069Z,50.08
2022-10-19T09:18:23.597Z,49.37
2022-10-19T09:20:58.122Z,49.47
2022-10-19T09:23:39.497Z,50.11
2022-10-19T09:26:18.650Z,50.42
2022-10-19T09:28:59.085Z,51.07
2022-10-19T09:31:39.585Z,47.88
2022-10-19T09:34:14.031Z,48.07
2022-10-19T09:36:50.398Z,48.42
2022-10-19T09:39:18.825Z,47.66
2022-10-19T09:42:18.927Z,48.52
2022-10-19T09:44:46.337Z,48.18
2022-10-19T09:47:37.140Z,47.64
2022-10-19T09:50:14.030Z,48.41
2022-10-19T09:52:43.117Z,47.71
2022-10-19T09:55:13.474Z,48.27
2022-10-19T09:57:44.732Z,47.97
2022-10-19T10:00:25.587Z,47.77
2022-10-19T10:02:55.225Z,47.74
2022-10-19T10:05:34.443Z,44.74
2022-10-19T10:08:03.477Z,45.17
2022-10-19T10:10:37.452Z,44.87
2022-10-19T10:13:05.727Z,45.08
2022-10-19T10:15:43.428Z,44.81
2022-10-19T10:18:16.138Z,45.61
2022-10-19T10:23:28.130Z,43.57
2022-10-19T10:25:57.339Z,43.31
2022-10-19T10:28:27.241Z,42.84
2022-10-19T10:31:00.247Z,44.77
2022-10-19T10:33:45.680Z,44.75
2022-10-19T10:36:13.341Z,43.14
2022-10-19T10:38:45.296Z,43.54
2022-10-19T10:41:17.613Z,42.85
2022-10-19T10:43:54.693Z,43.27
2022-10-19T10:46:29.106Z,42.45
2022-10-19T10:48:58.877Z,42.38
2022-10-19T10:51:40.643Z,43.45
2022-10-19T10:54:27.045Z,43.53
2022-10-19T10:57:07.034Z,43.05
2022-10-19T10:59:43.073Z,40.30
2022-10-19T11:02:36.154Z,37.95
2022-10-19T11:05:28.974Z,37.42
2022-10-19T11:08:25.392Z,38.60
2022-10-19T11:11:02.326Z,37.88
2022-10-19T11:14:15.611Z,37.93
2022-10-19T11:16:45.393Z,38.75
2022-10-19T11:19:19.047Z,38.63
2022-10-19T11:22:00.984Z,39.91
2022-10-19T11:24:38.462Z,39.57
2022-10-19T11:27:28.494Z,39.70
2022-10-19T11:30:12.590Z,40.56
2022-10-19T11:33:02.168Z,40.95
2022-10-19T11:35:32.498Z,39.79
2022-10-19T11:38:20.693Z,40.85
2022-10-19T11:41:17.331Z,41.83
2022-10-19T11:43:51.478Z,41.42
2022-10-19T11:46:37.138Z,42.06
2022-10-19T11:49:23.359Z,41.56
2022-10-19T11:51:51.967Z,40.52
2022-10-19T11:54:41.618Z,40.53
2022-10-19T11:57:12.033Z,41.67
2022-10-19T11:59:52.815Z,41.10
2022-10-19T12:02:42.665Z,40.66
2022-10-19T12:05:13.055Z,41.27
2022-10-19T12:07:46.561Z,41.61
2022-10-19T12:10:22.366Z,40.69
2022-10-19T12:12:52.794Z,42.22
2022-10-19T12:15:21.665Z,41.57
2022-10-19T12:17:51.093Z,42.03
2022-10-19T12:20:24.837Z,42.28
2022-10-19T12:22:52.604Z,42.79
2022-10-19T12:25:20.256Z,43.09
2022-10-19T12:27:50.066Z,41.10
2022-10-19T12:30:22.911Z,42.87
2022-10-19T12:33:15.296Z,44.25
2022-10-19T12:36:01.449Z,44.82
2022-10-19T12:38:44.016Z,44.81
2022-10-19T12:41:22.902Z,44.94
2022-10-19T12:44:14.906Z,44.62
2022-10-19T12:47:00.850Z,43.90
2022-10-19T12:49:45.459Z,43.08
2022-10-19T12:52:14.364Z,42.42
2022-10-19T12:54:42.965Z,42.34
2022-10-19T12:57:28.462Z,40.69
2022-10-19T13:00:02.239Z,40.22
2022-10-19T13:05:06.234Z,39.46
2022-10-19T13:07:35.321Z,39.38
2022-10-19T13:10:05.892Z,39.69
2022-10-19T13:12:45.785Z,39.43
2022-10-19T13:15:35.881Z,39.69
2022-10-19T13:18:05.907Z,38.86
2022-10-19T13:20:33.859Z,39.41
2022-10-19T13:23:01.444Z,40.22
2022-10-19T13:25:36.339Z,39.59
2022-10-19T13:28:06.639Z,39.62
2022-10-19T13:30:41.791Z,38.80
2022-10-19T13:33:31.583Z,38.78
2022-10-19T13:35:59.249Z,39.03
2022-10-19T13:38:31.829Z,38.66
2022-10-19T13:41:14.798Z,38.91
2022-10-19T13:44:03.757Z,39.54
2022-10-19T13:46:31.391Z,38.94
2022-10-19T13:49:01.675Z,38.32
2022-10-19T13:51:45.361Z,38.41
2022-10-19T13:54:28.007Z,39.00
2022-10-19T13:57:03.805Z,40.25
2022-10-19T13:59:51.535Z,40.51
2022-10-19T14:03:00.708Z,40.57
2022-10-19T14:06:05.925Z,39.36
2022-10-19T14:08:52.061Z,39.52
2022-10-19T14:11:34.269Z,39.86
2022-10-19T14:14:20.403Z,40.31
2022-10-19T14:16:52.778Z,38.51
2022-10-19T14:19:30.370Z,38.80
2022-10-19T14:22:01.324Z,39.16
2022-10-19T14:24:34.538Z,38.65
2022-10-19T14:27:04.439Z,38.75
2022-10-19T14:29:37.308Z,39.40
2022-10-19T14:32:05.108Z,38.43
2022-10-19T14:34:32.572Z,38.96
2022-10-19T14:37:00.181Z,39.05
2022-10-19T14:39:34.069Z,39.45
2022-10-19T14:42:06.504Z,39.89
2022-10-19T14:44:44.206Z,39.38
2022-10-19T14:47:27.261Z,40.66
2022-10-19T14:49:55.023Z,39.58
2022-10-19T14:52:32.783Z,40.34
2022-10-19T14:55:02.106Z,40.12
2022-10-19T14:57:33.182Z,39.92
2022-10-19T15:00:22.418Z,40.51
2022-10-19T15:03:00.166Z,40.01
2022-10-19T15:05:32.250Z,40.15
2022-10-19T15:08:11.235Z,40.79
2022-10-19T15:10:43.573Z,40.88
2022-10-19T15:13:34.864Z,39.99
2022-10-19T15:16:02.613Z,41.34
2022-10-19T15:18:48.857Z,40.31
2022-10-19T15:21:21.215Z,41.82
2022-10-19T15:23:50.843Z,41.02
2022-10-19T15:26:26.849Z,41.74
2022-10-19T15:28:56.093Z,41.02
2022-10-19T15:31:28.694Z,42.20
2022-10-19T15:34:00.818Z,40.90
2022-10-19T15:36:30.253Z,41.42
2022-10-19T15:39:06.162Z,42.36
2022-10-19T15:41:45.403Z,41.13
2022-10-19T15:44:34.259Z,42.55
2022-10-19T15:47:20.191Z,42.30
2022-10-19T15:49:53.719Z,42.38
2022-10-19T15:52:27.582Z,41.97
2022-10-19T15:54:57.409Z,40.84
2022-10-19T15:57:32.408Z,41.36
2022-10-19T16:00:21.908Z,40.48
2022-10-19T16:02:49.620Z,41.33
2022-10-19T16:05:17.447Z,42.41
2022-10-19T16:07:45.243Z,42.30
2022-10-19T16:10:24.655Z,42.39
2022-10-19T16:12:52.488Z,42.19
2022-10-19T16:15:22.512Z,41.18
2022-10-19T16:17:58.527Z,41.58
2022-10-19T16:20:28.503Z,41.33
2022-10-19T16:22:56.744Z,41.45
2022-10-19T16:25:24.629Z,41.59
2022-10-19T16:27:52.484Z,42.56
2022-10-19T16:30:20.310Z,42.78
2022-10-19T16:32:48.636Z,41.94
2022-10-19T16:35:16.658Z,42.01
2022-10-19T16:37:44.178Z,41.57
2022-10-19T16:40:11.886Z,40.97
2022-10-19T16:42:39.740Z,41.37
2022-10-19T16:45:07.847Z,41.83
2022-10-19T16:47:35.298Z,41.29
2022-10-19T16:50:04.922Z,40.67
2022-10-19T16:52:33.337Z,41.55
2022-10-19T16:55:01.469Z,40.31
2022-10-19T16:57:29.358Z,40.83
2022-10-19T16:59:57.073Z,40.13
2022-10-19T17:02:24.855Z,40.76
2022-10-19T17:04:53.135Z,40.43
2022-10-19T17:07:20.751Z,40.19
2022-10-19T17:09:52.182Z,39.89
2022-10-19T17:12:22.439Z,40.50
2022-10-19T17:14:51.313Z,41.52
2022-10-19T17:17:19.393Z,40.69
2022-10-19T17:19:48.311Z,39.93
2022-10-19T17:22:15.896Z,40.04
2022-10-19T17:24:46.251Z,40.61
2022-10-19T17:27:14.165Z,40.11
2022-10-19T17:29:41.868Z,40.36
2022-10-19T17:32:09.652Z,40.53
2022-10-19T17:34:37.521Z,41.23
2022-10-19T17:37:05.518Z,40.67
2022-10-19T17:39:33.209Z,42.28
2022-10-19T17:42:03.294Z,42.22
2022-10-19T17:44:31.560Z,41.60
2022-10-19T17:47:01.320Z,43.21
2022-10-19T17:49:30.034Z,44.01
2022-10-19T17:51:58.002Z,44.37
2022-10-19T17:54:25.766Z,43.10
2022-10-19T17:56:53.725Z,44.27
2022-10-19T17:59:34.838Z,46.16
2022-10-19T18:02:10.971Z,45.19
2022-10-19T18:04:38.919Z,44.61
2022-10-19T18:07:06.675Z,45.06
2022-10-19T18:09:34.273Z,44.13
2022-10-19T18:12:04.842Z,44.28
2022-10-19T18:14:35.012Z,43.98
2022-10-19T18:17:03.960Z,43.76
2022-10-19T18:19:32.005Z,43.41
2022-10-19T18:22:00.240Z,43.19
2022-10-19T18:24:28.086Z,42.91
2022-10-19T18:26:55.835Z,42.88
2022-10-19T18:29:25.395Z,42.92
2022-10-19T18:31:53.633Z,42.53
2022-10-19T18:34:23.786Z,44.06
2022-10-19T18:36:51.981Z,43.10
2022-10-19T18:39:21.085Z,45.35
2022-10-19T18:41:54.815Z,43.86
2022-10-19T18:44:27.265Z,43.32
2022-10-19T18:46:56.941Z,43.81
2022-10-19T18:49:25.628Z,42.70
2022-10-19T18:51:55.797Z,43.99
2022-10-19T18:54:27.833Z,42.77
2022-10-19T18:56:56.024Z,42.24
2022-10-19T18:59:24.029Z,42.40
2022-10-19T19:01:52.095Z,42.97
2022-10-19T19:04:20.042Z,42.31
2022-10-19T19:06:47.597Z,42.47
2022-10-19T19:09:15.365Z,42.03
2022-10-19T19:11:43.393Z,42.07
2022-10-19T19:14:17.828Z,41.94
2022-10-19T19:16:46.235Z,41.58
2022-10-19T19:19:15.006Z,41.35
2022-10-19T19:21:44.469Z,41.75
2022-10-19T19:24:15.467Z,41.89
2022-10-19T19:26:48.325Z,41.95
2022-10-19T19:29:16.830Z,42.31
2022-10-19T19:31:44.580Z,42.48
2022-10-19T19:34:12.404Z,42.51
2022-10-19T19:36:48.086Z,43.09
2022-10-19T19:39:19.428Z,43.42
2022-10-19T19:41:48.798Z,44.30
2022-10-19T19:44:16.913Z,43.33
2022-10-19T19:46:44.568Z,43.44
2022-10-19T19:49:13.260Z,43.10
2022-10-19T19:51:41.775Z,43.44
2022-10-19T19:54:09.922Z,43.54
2022-10-19T19:56:39.525Z,42.87
2022-10-19T19:59:07.823Z,43.29
2022-10-19T20:01:37.332Z,43.70
2022-10-19T20:04:06.245Z,44.54
2022-10-19T20:06:35.500Z,45.24
2022-10-19T20:09:04.929Z,43.90
2022-10-19T20:11:33.049Z,43.78
2022-10-19T20:14:00.750Z,43.42
2022-10-19T20:16:32.067Z,42.84
2022-10-19T20:19:05.461Z,43.82
2022-10-19T20:21:33.776Z,43.49
2022-10-19T20:24:01.921Z,45.47
2022-10-19T20:26:30.054Z,44.26
2022-10-19T20:28:58.233Z,43.55
2022-10-19T20:33:59.664Z,43.73
2022-10-19T20:36:27.864Z,44.60
2022-10-19T20:38:57.623Z,43.62
2022-10-19T20:41:28.115Z,43.74
2022-10-19T20:43:56.191Z,43.35
2022-10-19T20:46:26.013Z,43.74
2022-10-19T20:48:59.627Z,44.09
2022-10-19T20:51:33.043Z,44.21
2022-10-19T20:54:01.937Z,44.09
2022-10-19T20:56:32.856Z,43.98
2022-10-19T21:01:33.776Z,44.09
2022-10-19T21:04:04.661Z,44.26
2022-10-19T21:06:34.748Z,44.12
2022-10-19T21:09:02.318Z,45.29
2022-10-19T21:11:32.574Z,44.88
2022-10-19T21:14:05.506Z,45.00
2022-10-19T21:16:37.721Z,44.77
2022-10-19T21:19:13.654Z,44.78
2022-10-19T21:21:43.975Z,44.58
2022-10-19T21:24:20.420Z,44.36
2022-10-19T21:26:48.674Z,43.99
2022-10-19T21:29:17.207Z,43.91
2022-10-19T21:31:49.695Z,44.11
2022-10-19T21:34:20.179Z,43.48
2022-10-19T21:36:47.837Z,43.56
2022-10-19T21:39:15.343Z,43.87
2022-10-19T21:41:43.080Z,43.73
2022-10-19T21:44:10.506Z,43.79
2022-10-19T21:46:37.951Z,44.18
2022-10-19T21:49:05.689Z,44.51
2022-10-19T21:51:42.647Z,44.27
2022-10-19T21:54:15.466Z,45.33
2022-10-19T21:56:43.646Z,45.87
2022-10-19T21:59:12.178Z,45.48
2022-10-19T22:01:41.451Z,44.92
2022-10-19T22:04:14.654Z,44.71
2022-10-19T22:06:42.794Z,44.69
2022-10-19T22:09:13.401Z,44.74
2022-10-19T22:11:41.186Z,44.38
2022-10-19T22:14:10.610Z,44.31
2022-10-19T22:16:39.841Z,44.07
2022-10-19T22:19:07.361Z,43.78
2022-10-19T22:21:35.404Z,44.23
2022-10-19T22:24:09.265Z,43.92
2022-10-19T22:26:39.592Z,44.28
2022-10-19T22:29:07.906Z,44.40
2022-10-19T22:31:36.266Z,44.23
2022-10-19T22:34:10.054Z,44.57
2022-10-19T22:36:38.049Z,43.94
2022-10-19T22:39:06.192Z,43.60
2022-10-19T22:41:33.721Z,43.82
2022-10-19T22:44:01.545Z,44.33
2022-10-19T22:46:29.002Z,43.97
2022-10-19T22:48:56.590Z,43.91
2022-10-19T22:51:24.644Z,43.68
2022-10-19T22:53:52.064Z,43.90
2022-10-19T22:56:19.530Z,43.69
2022-10-19T22:58:47.236Z,43.78
2022-10-19T23:01:16.158Z,43.75
2022-10-19T23:03:44.012Z,44.15
2022-10-19T23:06:14.446Z,45.18
2022-10-19T23:08:43.317Z,44.81
2022-10-19T23:11:11.402Z,44.58
2022-10-19T23:13:39.666Z,44.38
2022-10-19T23:16:07.910Z,44.96
2022-10-19T23:18:37.813Z,44.71
2022-10-19T23:21:08.154Z,44.27
2022-10-19T23:23:36.921Z,44.27
2022-10-19T23:26:08.902Z,44.73
2022-10-19T23:28:38.781Z,44.37
2022-10-19T23:31:10.160Z,44.40
2022-10-19T23:33:37.638Z,44.65
2022-10-19T23:36:10.302Z,44.45
2022-10-19T23:38:38.123Z,44.33
2022-10-19T23:41:05.789Z,44.55
2022-10-19T23:43:33.402Z,44.91
2022-10-19T23:46:01.164Z,44.75
2022-10-19T23:48:28.671Z,44.95
2022-10-19T23:51:04.234Z,45.06
2022-10-19T23:53:35.714Z,44.96
2022-10-19T23:56:08.788Z,45.07
2022-10-19T23:58:36.594Z,45.00
